Latest Weather Observations for Kowanyama

IDQ60801

Issued at 10:32 am EST Tuesday 28 March 2017 (issued every 30 minutes, with the page automatically refreshed every 10 minutes)

About weather observations | Map of weather stations | Latest weather observations for QLD | Other Formats
Station Details ID: 029038 Name: KOWANYAMA AIRPORT Lat: -15.48 Lon: 141.75 Height: 9.6 m
Data from the previous 72 hours. | See also: Recent months at Kowanyama
Date/Time
EST
Temp
°C
App
Temp
°C
Dew
Point
°C
Rel
Hum
%
Delta-T
°C
Wind Press
QNH
hPa
Press
MSL
hPa
Rain since
9am
mm
Dir  Spd
km/h
Gust
km/h
Spd
kts
Gust
kts
28/10:30am 32.4 36.6 26.5 71 4.2 W 17 22 9 12 1007.8 1007.7 0.0
28/10:00am 31.6 36.0 25.7 71 4.2 W 13 20 7 11 1008.0 1007.9 0.0
28/09:30am 31.0 35.4 26.3 76 3.4 WNW 15 22 8 12 1008.0 1007.9 0.0
28/09:00am 30.6 36.0 27.2 82 2.5 WNW 13 17 7 9 1007.9 1007.8 2.8
28/08:30am 29.4 35.5 27.6 90 1.3 WNW 11 17 6 9 1007.7 1007.6 2.8
28/08:00am 28.2 35.0 27.5 96 0.5 W 7 9 4 5 1007.4 1007.3 2.8
28/07:30am 26.4 33.0 26.4 100 0.0 WNW 4 6 2 3 1007.1 1007.0 2.8
28/07:00am 25.2 31.8 25.2 100 0.0 CALM 0 6 0 3 1006.7 1006.6 2.8
28/06:30am 25.0 31.5 25.0 100 0.0 CALM 0 0 0 0 1006.7 1006.6 2.8
28/06:00am 25.0 31.3 24.8 99 0.1 CALM 0 0 0 0 1006.4 1006.3 2.8
28/05:30am 25.4 32.1 25.4 100 0.0 CALM 0 0 0 0 1006.2 1006.1 2.8
28/05:00am 25.5 32.3 25.5 100 0.0 CALM 0 0 0 0 1006.0 1005.9 2.8
28/04:30am 25.6 32.4 25.6 100 0.0 CALM 0 0 0 0 1005.9 1005.8 2.8
28/04:00am 25.3 31.8 25.0 98 0.2 CALM 0 6 0 3 1005.7 1005.6 2.8
28/03:30am 25.4 32.0 25.2 99 0.1 CALM 0 0 0 0 1005.8 1005.7 2.8
28/03:00am 25.5 32.1 25.2 98 0.2 CALM 0 0 0 0 1006.0 1005.9 2.8
28/02:30am 25.6 32.2 25.3 98 0.2 CALM 0 0 0 0 1006.1 1006.0 2.8
28/02:00am 25.6 31.0 25.1 97 0.3 N 6 7 3 4 1006.3 1006.2 2.8
28/01:30am 25.6 32.1 25.1 97 0.3 CALM 0 0 0 0 1006.7 1006.6 2.8
28/01:00am 25.8 32.3 25.1 96 0.5 CALM 0 0 0 0 1006.8 1006.7 2.8
28/12:30am 25.8 31.2 25.1 96 0.5 N 6 6 3 3 1007.1 1007.0 2.8
28/12:00am 25.8 32.4 25.3 97 0.4 CALM 0 0 0 0 1007.3 1007.2 2.8
 
Date/Time
EST
Temp
°C
App
Temp
°C
Dew
Point
°C
Rel
Hum
%
Delta-T
°C
Wind Press
QNH
hPa
Press
MSL
hPa
Rain since
9am
mm
Dir  Spd
km/h
Gust
km/h
Spd
kts
Gust
kts
27/11:30pm 25.6 31.8 24.6 94 0.7 CALM 0 0 0 0 1007.3 1007.2 2.8
27/11:00pm 25.9 32.4 25.0 95 0.6 CALM 0 0 0 0 1007.6 1007.5 2.8
27/10:30pm 26.0 32.1 25.1 95 0.6 N 2 6 1 3 1007.7 1007.6 2.8
27/10:00pm 26.0 32.1 25.0 94 0.7 NW 2 7 1 4 1007.5 1007.4 2.8
27/09:30pm 26.1 31.9 25.2 95 0.6 WNW 4 6 2 3 1007.4 1007.3 2.8
27/09:00pm 26.2 32.7 25.0 93 0.8 CALM 0 0 0 0 1007.2 1007.1 2.8
27/08:30pm 26.2 32.7 25.0 93 0.8 CALM 0 0 0 0 1007.1 1007.0 2.8
27/08:00pm 26.5 32.3 25.1 92 1.0 NW 4 7 2 4 1006.8 1006.7 2.8
27/07:30pm 26.7 32.3 25.5 93 0.8 NW 6 9 3 5 1006.5 1006.4 2.8
27/07:00pm 26.7 31.9 25.1 91 1.1 NW 7 7 4 4 1006.1 1006.0 2.8
27/06:30pm 27.1 32.5 25.1 89 1.4 NNW 6 7 3 4 1006.2 1006.1 2.8
27/06:00pm 27.4 33.2 25.2 88 1.5 NW 4 7 2 4 1006.1 1006.0 2.8
27/05:30pm 27.1 31.5 24.4 85 1.9 W 9 11 5 6 1006.0 1005.9 2.8
27/05:00pm 27.0 30.2 24.3 85 1.9 NW 15 20 8 11 1006.1 1006.0 2.8
27/04:30pm 27.4 31.2 24.7 85 1.9 WSW 13 19 7 10 1006.4 1006.3 2.8
27/04:00pm 26.8 28.4 24.5 87 1.6 NW 24 35 13 19 1005.8 1005.7 2.8
27/03:30pm 26.6 30.8 24.8 90 1.3 NNW 11 20 6 11 1006.2 1006.1 2.0
27/03:00pm 26.0 28.1 23.7 87 1.6 NNW 19 30 10 16 1006.1 1006.0 1.2
27/02:30pm 27.6 31.0 24.0 81 2.5 NNE 13 26 7 14 1006.6 1006.5 0.4
27/02:00pm 29.8 35.3 26.2 81 2.6 NNW 9 15 5 8 1006.2 1006.1 0.4
27/01:30pm 30.1 34.2 25.2 75 3.5 SW 13 19 7 10 1006.8 1006.7 0.4
27/01:00pm 32.1 36.5 25.7 69 4.6 W 13 20 7 11 1007.3 1007.2 0.0
27/12:30pm 31.9 36.0 25.2 67 4.7 W 13 17 7 9 1008.0 1007.9 0.0
27/12:00pm 33.1 37.8 25.6 64 5.3 WSW 11 17 6 9 1008.5 1008.4 0.0
27/11:30am 31.6 35.9 25.5 70 4.3 WSW 13 20 7 11 1009.1 1009.0 0.0
27/11:00am 32.6 38.3 26.4 70 4.5 WSW 9 13 5 7 1009.4 1009.3 0.0
27/10:30am 32.3 38.3 26.4 71 4.2 SSW 7 11 4 6 1010.0 1009.9 0.0
27/10:00am 31.1 36.8 25.9 74 3.7 WNW 7 11 4 6 1010.3 1010.2 0.0
27/09:30am 30.8 37.6 26.1 76 3.4 NW 2 9 1 5 1010.3 1010.2 0.0
27/09:00am 29.9 37.1 26.7 83 2.3 NW 2 7 1 4 1010.4 1010.3 0.0
27/08:30am 28.6 35.8 26.2 87 1.7 CALM 0 0 0 0 1010.0 1009.9 0.0
27/08:00am 27.6 35.2 26.7 95 0.6 CALM 0 0 0 0 1009.3 1009.2 0.0
27/07:30am 26.3 33.6 26.3 100 0.0 CALM 0 0 0 0 1009.1 1009.0 0.0
27/07:00am 25.5 32.1 25.3 99 0.1 CALM 0 0 0 0 1008.8 1008.7 0.0
27/06:30am 25.4 32.0 25.2 99 0.1 CALM 0 0 0 0 1008.4 1008.3 0.0
27/06:00am 25.6 32.3 25.4 99 0.1 CALM 0 0 0 0 1008.2 1008.1 0.0
27/05:30am 25.7 32.5 25.5 99 0.1 CALM 0 0 0 0 1008.1 1008.0 0.0
27/05:00am 25.6 31.9 25.4 99 0.1 NE 2 6 1 3 1008.0 1007.9 0.0
27/04:30am 25.4 31.9 25.1 98 0.2 CALM 0 0 0 0 1007.8 1007.7 0.0
27/04:00am 25.6 32.1 25.1 97 0.3 CALM 0 6 0 3 1008.0 1007.9 0.0
27/03:30am 25.7 32.3 25.2 97 0.3 CALM 0 0 0 0 1008.1 1008.0 0.0
27/03:00am 25.7 31.9 25.2 97 0.3 NW 2 6 1 3 1008.3 1008.2 0.0
27/02:30am 26.0 31.6 25.5 97 0.4 N 6 9 3 5 1008.7 1008.6 0.0
27/02:00am 25.8 31.3 25.3 97 0.3 N 6 9 3 5 1008.9 1008.8 0.0
27/01:30am 25.9 32.4 25.0 95 0.6 CALM 0 0 0 0 1009.1 1009.0 0.0
27/01:00am 25.8 31.0 24.8 94 0.7 NNE 6 6 3 3 1009.4 1009.3 0.0
27/12:30am 26.0 32.5 25.0 94 0.7 CALM 0 0 0 0 1009.3 1009.2 0.0
27/12:00am 26.1 32.7 25.2 95 0.6 CALM 0 0 0 0 1009.5 1009.4 0.0
 
Date/Time
EST
Temp
°C
App
Temp
°C
Dew
Point
°C
Rel
Hum
%
Delta-T
°C
Wind Press
QNH
hPa
Press
MSL
hPa
Rain since
9am
mm
Dir  Spd
km/h
Gust
km/h
Spd
kts
Gust
kts
26/11:30pm 26.1 32.7 25.2 95 0.6 CALM 0 0 0 0 1009.6 1009.5 0.0
26/11:00pm 26.2 32.4 25.2 94 0.7 N 2 6 1 3 1009.9 1009.8 0.0
26/10:30pm 26.2 32.4 24.6 91 1.1 CALM 0 0 0 0 1009.8 1009.7 0.0
26/10:00pm 26.5 32.9 24.9 91 1.1 CALM 0 0 0 0 1009.5 1009.4 0.0
26/09:30pm 26.7 32.5 25.1 91 1.1 NW 4 7 2 4 1009.5 1009.4 0.0
26/09:00pm 27.0 33.5 25.0 89 1.4 CALM 0 0 0 0 1009.1 1009.0 0.0
26/08:30pm 27.3 32.9 25.5 90 1.3 W 6 6 3 3 1008.6 1008.5 0.0
26/08:00pm 27.4 33.0 25.4 89 1.4 WNW 6 7 3 4 1008.4 1008.3 0.0
26/07:30pm 27.5 32.6 25.5 89 1.4 W 9 11 5 6 1008.0 1007.9 0.0
26/07:00pm 27.6 32.5 25.2 87 1.7 W 9 9 5 5 1007.8 1007.7 0.0
26/06:30pm 28.0 32.7 25.0 84 2.1 W 9 13 5 7 1007.2 1007.1 0.0
26/06:00pm 28.4 33.2 24.4 79 2.8 WSW 7 11 4 6 1006.9 1006.8 0.0
26/05:30pm 28.8 33.2 24.4 77 3.1 W 9 11 5 6 1006.6 1006.5 0.0
26/05:00pm 29.8 33.4 24.4 73 3.8 WNW 13 15 7 8 1006.3 1006.2 0.0
26/04:30pm 30.9 34.6 24.5 68 4.5 W 13 19 7 10 1005.8 1005.7 0.0
26/04:00pm 31.6 35.8 24.7 67 4.9 W 11 17 6 9 1005.9 1005.8 0.0
26/03:30pm 32.4 37.8 23.9 61 5.9 N 2 7 1 4 1006.1 1006.0 0.0
26/03:00pm 32.2 38.0 24.0 62 5.7 CALM 0 6 0 3 1006.4 1006.3 0.0
26/02:30pm 32.2 37.5 23.7 61 5.9 ENE 2 7 1 4 1006.8 1006.7 0.0
26/02:00pm 31.7 36.4 24.0 63 5.4 ENE 6 9 3 5 1007.2 1007.1 0.0
26/01:30pm 32.1 37.2 24.7 65 5.2 NNE 6 9 3 5 1007.5 1007.4 0.0
26/01:00pm 31.8 36.3 23.9 63 5.5 ENE 7 9 4 5 1008.1 1008.0 0.0
26/12:30pm 32.0 37.2 25.1 67 4.9 NNW 7 15 4 8 1008.7 1008.6 0.0
26/12:00pm 32.9 38.0 24.6 61 5.8 ENE 6 11 3 6 1009.2 1009.1 0.0
26/11:30am 32.4 37.5 24.7 64 5.4 N 6 13 3 7 1009.6 1009.5 0.0
26/11:00am 31.1 36.0 23.7 64 5.1 NE 4 13 2 7 1010.1 1010.0 0.0
26/10:30am 31.5 37.7 26.3 74 3.7 NNE 6 11 3 6 1010.5 1010.4 0.0
26/10:00am 29.8 35.4 25.5 78 3.0 NNW 6 11 3 6 1010.9 1010.8 0.0
26/09:30am 29.0 34.7 25.6 82 2.4 NW 6 9 3 5 1011.2 1011.1 0.0
26/09:00am 28.1 33.4 25.3 85 2.0 NW 7 11 4 6 1011.2 1011.1 5.0
26/08:30am 27.1 33.6 25.7 92 1.0 N 2 7 1 4 1011.1 1011.0 5.0
26/08:00am 26.4 33.3 25.7 96 0.5 CALM 0 0 0 0 1010.7 1010.6 5.0
26/07:30am 25.9 32.7 25.6 98 0.2 CALM 0 0 0 0 1010.2 1010.1 5.0
26/07:00am 25.3 31.1 25.1 99 0.1 NNE 4 6 2 3 1009.5 1009.4 5.0
26/06:30am 25.2 30.5 25.0 99 0.1 NNE 6 7 3 4 1009.5 1009.4 5.0
26/06:00am 25.4 30.8 25.2 99 0.1 NE 6 7 3 4 1008.9 1008.8 5.0
26/05:30am 25.4 30.8 25.2 99 0.1 ENE 6 7 3 4 1008.7 1008.6 5.0
26/05:00am 25.5 30.8 25.3 99 0.1 ENE 7 9 4 5 1008.3 1008.2 5.0
26/04:30am 25.6 31.0 25.4 99 0.1 ENE 7 9 4 5 1008.3 1008.2 5.0
26/04:00am 25.8 31.5 25.6 99 0.1 ENE 6 7 3 4 1008.4 1008.3 5.0
26/03:30am 25.9 31.4 25.6 98 0.2 E 7 11 4 6 1008.3 1008.2 5.0
26/03:00am 26.1 31.9 25.8 98 0.2 ENE 6 7 3 4 1008.4 1008.3 5.0
26/02:30am 26.2 32.0 25.7 97 0.4 NE 6 7 3 4 1008.6 1008.5 4.8
26/02:00am 26.4 32.4 26.1 98 0.2 NE 6 7 3 4 1008.6 1008.5 4.8
26/01:30am 26.6 32.8 26.3 98 0.2 NE 6 7 3 4 1008.9 1008.8 4.8
26/01:00am 26.6 32.8 26.3 98 0.2 ENE 6 7 3 4 1009.2 1009.1 4.8
26/12:30am 26.5 33.2 26.0 97 0.4 NE 2 6 1 3 1009.5 1009.4 4.8
26/12:00am 26.5 33.1 25.8 96 0.5 E 2 7 1 4 1009.9 1009.8 4.8
 
Date/Time
EST
Temp
°C
App
Temp
°C
Dew
Point
°C
Rel
Hum
%
Delta-T
°C
Wind Press
QNH
hPa
Press
MSL
hPa
Rain since
9am
mm
Dir  Spd
km/h
Gust
km/h
Spd
kts
Gust
kts
25/11:30pm 26.6 33.6 25.9 96 0.5 CALM 0 0 0 0 1009.9 1009.8 4.8
25/11:00pm 26.4 33.3 25.7 96 0.5 CALM 0 6 0 3 1009.9 1009.8 4.8
25/10:30pm 26.3 31.9 25.4 95 0.6 NE 6 7 3 4 1009.8 1009.7 4.8
25/10:00pm 26.4 32.5 25.7 96 0.5 NE 4 7 2 4 1009.3 1009.2 4.8
25/09:30pm 26.3 31.9 25.4 95 0.6 E 6 7 3 4 1009.0 1008.9 4.8
25/09:00pm 26.3 32.9 25.3 94 0.7 CALM 0 0 0 0 1008.8 1008.7 4.8
25/08:30pm 26.4 33.1 25.4 94 0.7 CALM 0 4 0 2 1008.5 1008.4 4.8
25/08:00pm 26.3 31.7 25.1 93 0.8 NE 6 9 3 5 1008.3 1008.2 4.8
25/07:30pm 26.3 32.8 25.1 93 0.8 CALM 0 0 0 0 1007.9 1007.8 4.8
25/07:00pm 26.1 31.4 24.3 90 1.2 WSW 4 9 2 5 1007.5 1007.4 4.8
25/06:55pm 26.1 31.0 24.7 92 1.0 SW 7 9 4 5 1007.4 1007.3 4.8
25/06:33pm 26.7 29.2 24.4 87 1.6 SSW 19 30 10 16 1007.3 1007.2 1.4
25/06:30pm 27.1 29.7 24.6 86 1.7 S 19 30 10 16 1007.2 1007.1 0.6
25/06:00pm 28.9 33.5 25.3 81 2.5 W 11 15 6 8 1006.6 1006.5 0.4
25/05:30pm 29.2 33.9 25.6 81 2.5 WNW 11 13 6 7 1007.1 1007.0 0.4
25/05:00pm 29.7 33.9 25.4 78 3.0 WNW 13 15 7 8 1006.4 1006.3 0.4
25/04:30pm 29.7 34.3 24.8 75 3.4 NW 9 13 5 7 1006.3 1006.2 0.4
25/04:00pm 30.3 34.1 24.0 69 4.4 NW 11 17 6 9 1006.1 1006.0 0.4
25/03:30pm 31.0 36.0 25.4 72 4.0 NW 9 15 5 8 1006.2 1006.1 0.4
25/03:00pm 31.0 35.6 25.4 72 4.0 WNW 11 15 6 8 1006.3 1006.2 0.4
25/02:30pm 32.0 37.1 26.1 71 4.2 WSW 11 15 6 8 1006.6 1006.5 0.4
25/02:00pm 29.7 34.5 26.3 82 2.4 WNW 13 19 7 10 1006.9 1006.8 0.2
25/01:30pm 30.4 33.9 24.8 72 3.9 WSW 15 22 8 12 1007.5 1007.4 0.0
25/01:00pm 31.9 35.4 26.0 71 4.2 NW 19 24 10 13 1008.0 1007.9 0.0
25/12:30pm 30.5 35.1 25.3 74 3.7 WNW 11 17 6 9 1008.5 1008.4 0.0
25/12:00pm 30.6 35.5 25.9 76 3.3 W 11 15 6 8 1009.1 1009.0 0.0
25/11:30am 29.7 34.5 25.7 79 2.8 NW 11 13 6 7 1009.8 1009.7 0.0
25/11:00am 30.6 35.9 25.2 73 3.8 SW 7 15 4 8 1009.9 1009.8 0.0

Other Formats:

Comma delimited format used in spreadsheet applications
http://www.bom.gov.au/fwo/IDQ60801/IDQ60801.94268.axf

JavaScript Object Notation format (JSON) in row-major order
http://www.bom.gov.au/fwo/IDQ60801/IDQ60801.94268.json